sensor_id;sensor_type;location;lat;lon;timestamp;P1;durP1;ratioP1;P2;durP2;ratioP2
70153;SDS011;57519;51.494;-2.626;2022-09-14T00:00:20;11.50;;;6.60;;
70153;SDS011;57519;51.494;-2.626;2022-09-14T00:02:47;14.33;;;7.00;;
70153;SDS011;57519;51.494;-2.626;2022-09-14T00:05:12;11.02;;;6.90;;
70153;SDS011;57519;51.494;-2.626;2022-09-14T00:07:38;14.30;;;5.93;;
70153;SDS011;57519;51.494;-2.626;2022-09-14T00:10:03;12.87;;;6.90;;
70153;SDS011;57519;51.494;-2.626;2022-09-14T00:12:29;18.50;;;7.88;;
70153;SDS011;57519;51.494;-2.626;2022-09-14T00:14:54;15.47;;;7.60;;
70153;SDS011;57519;51.494;-2.626;2022-09-14T00:17:20;12.30;;;7.13;;
70153;SDS011;57519;51.494;-2.626;2022-09-14T00:19:45;13.48;;;7.25;;
70153;SDS011;57519;51.494;-2.626;2022-09-14T00:22:13;14.43;;;7.43;;
70153;SDS011;57519;51.494;-2.626;2022-09-14T00:24:39;14.85;;;7.25;;
70153;SDS011;57519;51.494;-2.626;2022-09-14T00:27:04;12.30;;;7.57;;
70153;SDS011;57519;51.494;-2.626;2022-09-14T00:29:30;13.50;;;6.47;;
70153;SDS011;57519;51.494;-2.626;2022-09-14T00:31:55;11.50;;;6.40;;
70153;SDS011;57519;51.494;-2.626;2022-09-14T00:34:21;15.73;;;7.40;;
70153;SDS011;57519;51.494;-2.626;2022-09-14T00:36:47;14.07;;;6.73;;
70153;SDS011;57519;51.494;-2.626;2022-09-14T00:39:14;10.48;;;6.38;;
70153;SDS011;57519;51.494;-2.626;2022-09-14T00:41:41;13.70;;;7.18;;
70153;SDS011;57519;51.494;-2.626;2022-09-14T00:46:38;13.57;;;7.47;;
70153;SDS011;57519;51.494;-2.626;2022-09-14T00:49:06;12.30;;;6.88;;
70153;SDS011;57519;51.494;-2.626;2022-09-14T00:51:35;10.15;;;6.18;;
70153;SDS011;57519;51.494;-2.626;2022-09-14T00:54:03;11.48;;;6.05;;
70153;SDS011;57519;51.494;-2.626;2022-09-14T00:56:30;15.93;;;7.67;;
70153;SDS011;57519;51.494;-2.626;2022-09-14T00:58:56;9.73;;;6.18;;
70153;SDS011;57519;51.494;-2.626;2022-09-14T01:01:24;11.25;;;6.82;;
70153;SDS011;57519;51.494;-2.626;2022-09-14T01:03:50;16.05;;;7.43;;
70153;SDS011;57519;51.494;-2.626;2022-09-14T01:08:51;13.10;;;6.82;;
70153;SDS011;57519;51.494;-2.626;2022-09-14T01:14:15;12.63;;;6.85;;
70153;SDS011;57519;51.494;-2.626;2022-09-14T01:17:09;11.03;;;6.43;;
70153;SDS011;57519;51.494;-2.626;2022-09-14T01:20:02;10.50;;;6.47;;
70153;SDS011;57519;51.494;-2.626;2022-09-14T01:25:33;10.93;;;5.93;;
70153;SDS011;57519;51.494;-2.626;2022-09-14T01:28:09;9.60;;;6.75;;
70153;SDS011;57519;51.494;-2.626;2022-09-14T01:30:59;13.37;;;7.33;;
70153;SDS011;57519;51.494;-2.626;2022-09-14T01:33:34;15.23;;;7.13;;
70153;SDS011;57519;51.494;-2.626;2022-09-14T01:36:05;13.00;;;7.00;;
70153;SDS011;57519;51.494;-2.626;2022-09-14T01:38:51;14.95;;;7.15;;
70153;SDS011;57519;51.494;-2.626;2022-09-14T01:41:19;12.80;;;7.18;;
70153;SDS011;57519;51.494;-2.626;2022-09-14T01:49:23;14.60;;;8.85;;
70153;SDS011;57519;51.494;-2.626;2022-09-14T01:51:56;16.75;;;7.82;;
70153;SDS011;57519;51.494;-2.626;2022-09-14T01:54:36;22.77;;;10.35;;
70153;SDS011;57519;51.494;-2.626;2022-09-14T01:57:11;17.63;;;10.03;;
70153;SDS011;57519;51.494;-2.626;2022-09-14T01:59:44;24.52;;;10.55;;
70153;SDS011;57519;51.494;-2.626;2022-09-14T02:02:29;17.02;;;10.07;;
70153;SDS011;57519;51.494;-2.626;2022-09-14T02:05:04;22.10;;;11.05;;
70153;SDS011;57519;51.494;-2.626;2022-09-14T02:07:31;19.23;;;10.50;;
70153;SDS011;57519;51.494;-2.626;2022-09-14T02:09:58;21.00;;;10.73;;
70153;SDS011;57519;51.494;-2.626;2022-09-14T02:12:24;23.15;;;11.30;;
70153;SDS011;57519;51.494;-2.626;2022-09-14T02:14:50;17.23;;;10.50;;
70153;SDS011;57519;51.494;-2.626;2022-09-14T02:17:17;21.27;;;12.13;;
70153;SDS011;57519;51.494;-2.626;2022-09-14T02:19:44;21.58;;;11.77;;
70153;SDS011;57519;51.494;-2.626;2022-09-14T02:22:13;19.25;;;10.98;;
70153;SDS011;57519;51.494;-2.626;2022-09-14T02:24:38;23.67;;;12.73;;
70153;SDS011;57519;51.494;-2.626;2022-09-14T02:27:05;25.37;;;12.63;;
70153;SDS011;57519;51.494;-2.626;2022-09-14T02:29:31;18.17;;;12.35;;
70153;SDS011;57519;51.494;-2.626;2022-09-14T02:32:09;16.77;;;11.05;;
70153;SDS011;57519;51.494;-2.626;2022-09-14T02:37:37;22.80;;;13.15;;
70153;SDS011;57519;51.494;-2.626;2022-09-14T02:45:51;19.48;;;12.18;;
70153;SDS011;57519;51.494;-2.626;2022-09-14T02:48:39;26.10;;;12.88;;
70153;SDS011;57519;51.494;-2.626;2022-09-14T02:54:09;25.47;;;13.63;;
70153;SDS011;57519;51.494;-2.626;2022-09-14T02:56:38;26.05;;;15.05;;
70153;SDS011;57519;51.494;-2.626;2022-09-14T02:59:06;17.70;;;13.00;;
70153;SDS011;57519;51.494;-2.626;2022-09-14T03:01:32;19.77;;;12.47;;
70153;SDS011;57519;51.494;-2.626;2022-09-14T03:03:58;23.42;;;13.40;;
70153;SDS011;57519;51.494;-2.626;2022-09-14T03:06:23;21.00;;;13.10;;
70153;SDS011;57519;51.494;-2.626;2022-09-14T03:08:49;21.63;;;14.23;;
70153;SDS011;57519;51.494;-2.626;2022-09-14T03:11:14;20.63;;;13.93;;
70153;SDS011;57519;51.494;-2.626;2022-09-14T03:13:40;22.17;;;13.03;;
70153;SDS011;57519;51.494;-2.626;2022-09-14T03:16:10;16.35;;;13.15;;
70153;SDS011;57519;51.494;-2.626;2022-09-14T03:18:37;19.85;;;14.23;;
70153;SDS011;57519;51.494;-2.626;2022-09-14T03:21:13;22.20;;;11.57;;
70153;SDS011;57519;51.494;-2.626;2022-09-14T03:23:41;20.67;;;13.23;;
70153;SDS011;57519;51.494;-2.626;2022-09-14T03:26:08;22.30;;;12.85;;
70153;SDS011;57519;51.494;-2.626;2022-09-14T03:28:38;23.75;;;13.20;;
70153;SDS011;57519;51.494;-2.626;2022-09-14T03:31:05;23.57;;;12.27;;
70153;SDS011;57519;51.494;-2.626;2022-09-14T03:33:32;19.52;;;12.32;;
70153;SDS011;57519;51.494;-2.626;2022-09-14T03:35:57;22.60;;;14.90;;
70153;SDS011;57519;51.494;-2.626;2022-09-14T03:38:23;27.70;;;15.63;;
70153;SDS011;57519;51.494;-2.626;2022-09-14T03:40:52;19.60;;;15.43;;
70153;SDS011;57519;51.494;-2.626;2022-09-14T03:43:17;25.90;;;15.70;;
70153;SDS011;57519;51.494;-2.626;2022-09-14T03:45:42;23.95;;;15.10;;
70153;SDS011;57519;51.494;-2.626;2022-09-14T03:48:08;19.90;;;12.27;;
70153;SDS011;57519;51.494;-2.626;2022-09-14T03:50:35;22.27;;;12.75;;
70153;SDS011;57519;51.494;-2.626;2022-09-14T03:53:01;20.00;;;12.87;;
70153;SDS011;57519;51.494;-2.626;2022-09-14T03:55:28;26.08;;;14.60;;
70153;SDS011;57519;51.494;-2.626;2022-09-14T03:57:54;21.83;;;14.38;;
70153;SDS011;57519;51.494;-2.626;2022-09-14T04:00:20;21.87;;;12.27;;
70153;SDS011;57519;51.494;-2.626;2022-09-14T04:02:46;20.67;;;12.88;;
70153;SDS011;57519;51.494;-2.626;2022-09-14T04:05:12;24.73;;;14.13;;
70153;SDS011;57519;51.494;-2.626;2022-09-14T04:07:37;24.15;;;13.45;;
70153;SDS011;57519;51.494;-2.626;2022-09-14T04:10:03;24.97;;;14.53;;
70153;SDS011;57519;51.494;-2.626;2022-09-14T04:12:34;24.50;;;14.13;;
70153;SDS011;57519;51.494;-2.626;2022-09-14T04:15:00;19.70;;;15.85;;
70153;SDS011;57519;51.494;-2.626;2022-09-14T04:17:26;21.03;;;13.23;;
70153;SDS011;57519;51.494;-2.626;2022-09-14T04:19:52;22.17;;;13.23;;
70153;SDS011;57519;51.494;-2.626;2022-09-14T04:22:17;19.77;;;12.50;;
70153;SDS011;57519;51.494;-2.626;2022-09-14T04:24:43;19.90;;;13.37;;
70153;SDS011;57519;51.494;-2.626;2022-09-14T04:27:08;31.23;;;14.63;;
70153;SDS011;57519;51.494;-2.626;2022-09-14T04:29:33;24.20;;;14.43;;
70153;SDS011;57519;51.494;-2.626;2022-09-14T04:31:59;20.30;;;14.67;;
70153;SDS011;57519;51.494;-2.626;2022-09-14T04:34:24;23.80;;;15.83;;
70153;SDS011;57519;51.494;-2.626;2022-09-14T04:36:50;22.13;;;16.00;;
70153;SDS011;57519;51.494;-2.626;2022-09-14T04:39:15;26.15;;;15.48;;
70153;SDS011;57519;51.494;-2.626;2022-09-14T04:41:41;19.30;;;15.00;;
70153;SDS011;57519;51.494;-2.626;2022-09-14T04:44:06;22.80;;;14.23;;
70153;SDS011;57519;51.494;-2.626;2022-09-14T04:46:32;23.57;;;13.83;;
70153;SDS011;57519;51.494;-2.626;2022-09-14T04:49:03;25.77;;;16.05;;
70153;SDS011;57519;51.494;-2.626;2022-09-14T04:51:29;21.90;;;15.02;;
70153;SDS011;57519;51.494;-2.626;2022-09-14T04:53:56;22.27;;;15.85;;
70153;SDS011;57519;51.494;-2.626;2022-09-14T04:56:23;22.53;;;18.23;;
70153;SDS011;57519;51.494;-2.626;2022-09-14T04:58:51;25.58;;;18.35;;
70153;SDS011;57519;51.494;-2.626;2022-09-14T05:01:19;28.30;;;19.70;;
70153;SDS011;57519;51.494;-2.626;2022-09-14T05:03:47;27.20;;;18.73;;
70153;SDS011;57519;51.494;-2.626;2022-09-14T05:06:14;24.70;;;17.77;;
70153;SDS011;57519;51.494;-2.626;2022-09-14T05:08:44;23.85;;;21.38;;
70153;SDS011;57519;51.494;-2.626;2022-09-14T05:11:15;20.35;;;17.88;;
70153;SDS011;57519;51.494;-2.626;2022-09-14T05:13:42;26.42;;;21.52;;
70153;SDS011;57519;51.494;-2.626;2022-09-14T05:18:43;23.57;;;19.90;;
70153;SDS011;57519;51.494;-2.626;2022-09-14T05:21:09;23.13;;;19.30;;
70153;SDS011;57519;51.494;-2.626;2022-09-14T05:23:35;25.75;;;20.00;;
70153;SDS011;57519;51.494;-2.626;2022-09-14T05:26:01;24.67;;;20.03;;
70153;SDS011;57519;51.494;-2.626;2022-09-14T05:28:28;26.67;;;21.05;;
70153;SDS011;57519;51.494;-2.626;2022-09-14T05:30:53;22.50;;;19.67;;
70153;SDS011;57519;51.494;-2.626;2022-09-14T05:33:19;26.38;;;18.17;;
70153;SDS011;57519;51.494;-2.626;2022-09-14T05:35:46;27.83;;;21.77;;
70153;SDS011;57519;51.494;-2.626;2022-09-14T05:38:12;24.43;;;21.87;;
70153;SDS011;57519;51.494;-2.626;2022-09-14T05:40:37;24.63;;;22.05;;
70153;SDS011;57519;51.494;-2.626;2022-09-14T05:43:03;22.37;;;20.03;;
70153;SDS011;57519;51.494;-2.626;2022-09-14T05:45:28;21.30;;;18.87;;
70153;SDS011;57519;51.494;-2.626;2022-09-14T05:47:54;19.08;;;16.98;;
70153;SDS011;57519;51.494;-2.626;2022-09-14T05:50:19;22.37;;;16.50;;
70153;SDS011;57519;51.494;-2.626;2022-09-14T05:52:45;20.83;;;18.67;;
70153;SDS011;57519;51.494;-2.626;2022-09-14T05:55:12;27.25;;;21.20;;
70153;SDS011;57519;51.494;-2.626;2022-09-14T05:57:38;27.40;;;21.47;;
70153;SDS011;57519;51.494;-2.626;2022-09-14T06:00:04;29.10;;;21.25;;
70153;SDS011;57519;51.494;-2.626;2022-09-14T06:02:30;26.30;;;19.23;;
70153;SDS011;57519;51.494;-2.626;2022-09-14T06:04:55;26.20;;;19.60;;
70153;SDS011;57519;51.494;-2.626;2022-09-14T06:07:20;27.33;;;20.33;;
70153;SDS011;57519;51.494;-2.626;2022-09-14T06:09:46;26.63;;;20.37;;
70153;SDS011;57519;51.494;-2.626;2022-09-14T06:12:11;26.03;;;19.50;;
70153;SDS011;57519;51.494;-2.626;2022-09-14T06:14:38;23.15;;;17.27;;
70153;SDS011;57519;51.494;-2.626;2022-09-14T06:17:04;18.67;;;16.75;;
70153;SDS011;57519;51.494;-2.626;2022-09-14T06:19:30;30.80;;;16.83;;
70153;SDS011;57519;51.494;-2.626;2022-09-14T06:21:55;25.17;;;20.73;;
70153;SDS011;57519;51.494;-2.626;2022-09-14T06:24:21;21.45;;;18.63;;
70153;SDS011;57519;51.494;-2.626;2022-09-14T06:26:52;24.00;;;21.57;;
70153;SDS011;57519;51.494;-2.626;2022-09-14T06:29:24;26.33;;;18.20;;
70153;SDS011;57519;51.494;-2.626;2022-09-14T06:31:49;21.70;;;15.90;;
70153;SDS011;57519;51.494;-2.626;2022-09-14T06:34:15;22.13;;;17.67;;
70153;SDS011;57519;51.494;-2.626;2022-09-14T06:36:40;18.50;;;14.53;;
70153;SDS011;57519;51.494;-2.626;2022-09-14T06:39:05;20.07;;;14.60;;
70153;SDS011;57519;51.494;-2.626;2022-09-14T06:41:31;16.20;;;14.40;;
70153;SDS011;57519;51.494;-2.626;2022-09-14T06:43:59;18.53;;;13.20;;
70153;SDS011;57519;51.494;-2.626;2022-09-14T06:46:26;19.75;;;15.88;;
70153;SDS011;57519;51.494;-2.626;2022-09-14T06:48:58;21.42;;;13.95;;
70153;SDS011;57519;51.494;-2.626;2022-09-14T06:51:30;22.55;;;15.05;;
70153;SDS011;57519;51.494;-2.626;2022-09-14T06:53:57;16.65;;;14.13;;
70153;SDS011;57519;51.494;-2.626;2022-09-14T06:56:24;28.70;;;18.77;;
70153;SDS011;57519;51.494;-2.626;2022-09-14T06:58:50;21.60;;;16.08;;
70153;SDS011;57519;51.494;-2.626;2022-09-14T07:01:17;20.50;;;17.08;;
70153;SDS011;57519;51.494;-2.626;2022-09-14T07:03:44;18.13;;;13.02;;
70153;SDS011;57519;51.494;-2.626;2022-09-14T07:06:12;15.93;;;12.40;;
70153;SDS011;57519;51.494;-2.626;2022-09-14T07:08:43;15.93;;;12.40;;
70153;SDS011;57519;51.494;-2.626;2022-09-14T07:11:09;17.85;;;10.32;;
70153;SDS011;57519;51.494;-2.626;2022-09-14T07:13:36;20.52;;;14.35;;
70153;SDS011;57519;51.494;-2.626;2022-09-14T07:16:02;30.83;;;17.00;;
70153;SDS011;57519;51.494;-2.626;2022-09-14T07:18:28;17.27;;;14.73;;
70153;SDS011;57519;51.494;-2.626;2022-09-14T07:21:00;19.45;;;14.20;;
70153;SDS011;57519;51.494;-2.626;2022-09-14T07:23:27;22.05;;;17.38;;
70153;SDS011;57519;51.494;-2.626;2022-09-14T07:26:06;17.23;;;15.53;;
70153;SDS011;57519;51.494;-2.626;2022-09-14T07:28:34;19.50;;;17.58;;
70153;SDS011;57519;51.494;-2.626;2022-09-14T07:31:00;18.80;;;15.50;;
70153;SDS011;57519;51.494;-2.626;2022-09-14T07:33:26;18.33;;;13.00;;
70153;SDS011;57519;51.494;-2.626;2022-09-14T07:35:52;15.25;;;12.95;;
70153;SDS011;57519;51.494;-2.626;2022-09-14T07:38:18;22.27;;;14.30;;
70153;SDS011;57519;51.494;-2.626;2022-09-14T07:40:44;18.83;;;14.00;;
70153;SDS011;57519;51.494;-2.626;2022-09-14T07:43:10;17.98;;;11.15;;
70153;SDS011;57519;51.494;-2.626;2022-09-14T07:45:36;14.40;;;12.73;;
70153;SDS011;57519;51.494;-2.626;2022-09-14T07:48:03;15.20;;;12.90;;
70153;SDS011;57519;51.494;-2.626;2022-09-14T07:50:29;19.07;;;13.13;;
70153;SDS011;57519;51.494;-2.626;2022-09-14T07:52:54;15.15;;;11.40;;
70153;SDS011;57519;51.494;-2.626;2022-09-14T07:55:20;17.83;;;12.73;;
70153;SDS011;57519;51.494;-2.626;2022-09-14T07:57:45;40.67;;;20.63;;
70153;SDS011;57519;51.494;-2.626;2022-09-14T08:00:11;17.43;;;13.47;;
70153;SDS011;57519;51.494;-2.626;2022-09-14T08:02:38;15.43;;;13.48;;
70153;SDS011;57519;51.494;-2.626;2022-09-14T08:05:03;16.10;;;12.87;;
70153;SDS011;57519;51.494;-2.626;2022-09-14T08:07:29;15.07;;;12.57;;
70153;SDS011;57519;51.494;-2.626;2022-09-14T08:09:54;17.43;;;11.43;;
70153;SDS011;57519;51.494;-2.626;2022-09-14T08:12:20;21.27;;;13.97;;
70153;SDS011;57519;51.494;-2.626;2022-09-14T08:14:46;17.83;;;15.02;;
70153;SDS011;57519;51.494;-2.626;2022-09-14T08:17:11;17.90;;;15.97;;
70153;SDS011;57519;51.494;-2.626;2022-09-14T08:19:36;18.00;;;15.83;;
70153;SDS011;57519;51.494;-2.626;2022-09-14T08:22:02;21.65;;;15.85;;
70153;SDS011;57519;51.494;-2.626;2022-09-14T08:24:31;22.13;;;18.17;;
70153;SDS011;57519;51.494;-2.626;2022-09-14T08:26:59;22.88;;;15.90;;
70153;SDS011;57519;51.494;-2.626;2022-09-14T08:29:24;20.37;;;16.70;;
70153;SDS011;57519;51.494;-2.626;2022-09-14T08:31:53;20.20;;;17.73;;
70153;SDS011;57519;51.494;-2.626;2022-09-14T08:34:18;17.77;;;16.13;;
70153;SDS011;57519;51.494;-2.626;2022-09-14T08:36:45;21.92;;;18.48;;
70153;SDS011;57519;51.494;-2.626;2022-09-14T08:39:11;19.85;;;15.15;;
70153;SDS011;57519;51.494;-2.626;2022-09-14T08:46:37;15.43;;;12.80;;
70153;SDS011;57519;51.494;-2.626;2022-09-14T08:54:57;17.75;;;12.82;;
70153;SDS011;57519;51.494;-2.626;2022-09-14T09:00:09;18.23;;;10.40;;
70153;SDS011;57519;51.494;-2.626;2022-09-14T09:11:44;17.55;;;9.32;;
70153;SDS011;57519;51.494;-2.626;2022-09-14T09:16:50;19.25;;;9.90;;
70153;SDS011;57519;51.494;-2.626;2022-09-14T09:19:32;17.90;;;10.02;;
70153;SDS011;57519;51.494;-2.626;2022-09-14T09:22:42;16.08;;;8.57;;
70153;SDS011;57519;51.494;-2.626;2022-09-14T09:28:21;19.90;;;9.50;;
70153;SDS011;57519;51.494;-2.626;2022-09-14T09:30:52;22.35;;;10.23;;
70153;SDS011;57519;51.494;-2.626;2022-09-14T09:33:20;35.55;;;12.43;;
70153;SDS011;57519;51.494;-2.626;2022-09-14T09:35:48;23.00;;;10.75;;
70153;SDS011;57519;51.494;-2.626;2022-09-14T09:38:15;18.25;;;10.40;;
70153;SDS011;57519;51.494;-2.626;2022-09-14T09:40:45;18.77;;;10.20;;
70153;SDS011;57519;51.494;-2.626;2022-09-14T09:43:19;18.85;;;8.75;;
70153;SDS011;57519;51.494;-2.626;2022-09-14T09:48:11;27.27;;;9.93;;
70153;SDS011;57519;51.494;-2.626;2022-09-14T10:02:43;29.33;;;10.73;;
70153;SDS011;57519;51.494;-2.626;2022-09-14T10:07:57;21.50;;;9.20;;
70153;SDS011;57519;51.494;-2.626;2022-09-14T10:10:24;23.73;;;10.45;;
70153;SDS011;57519;51.494;-2.626;2022-09-14T10:13:04;19.87;;;9.27;;
70153;SDS011;57519;51.494;-2.626;2022-09-14T10:15:40;20.10;;;9.50;;
70153;SDS011;57519;51.494;-2.626;2022-09-14T10:18:16;19.42;;;9.80;;
70153;SDS011;57519;51.494;-2.626;2022-09-14T10:21:05;24.20;;;11.30;;
70153;SDS011;57519;51.494;-2.626;2022-09-14T10:23:31;18.80;;;9.77;;
70153;SDS011;57519;51.494;-2.626;2022-09-14T10:28:41;27.48;;;12.20;;
70153;SDS011;57519;51.494;-2.626;2022-09-14T10:33:39;25.85;;;10.00;;
70153;SDS011;57519;51.494;-2.626;2022-09-14T10:55:22;15.95;;;7.90;;
70153;SDS011;57519;51.494;-2.626;2022-09-14T11:03:29;17.77;;;9.07;;
70153;SDS011;57519;51.494;-2.626;2022-09-14T11:08:59;18.85;;;8.38;;
70153;SDS011;57519;51.494;-2.626;2022-09-14T11:11:43;24.60;;;9.43;;
70153;SDS011;57519;51.494;-2.626;2022-09-14T11:17:13;23.15;;;8.45;;
70153;SDS011;57519;51.494;-2.626;2022-09-14T11:22:24;16.25;;;7.22;;
70153;SDS011;57519;51.494;-2.626;2022-09-14T11:25:07;18.70;;;7.65;;
70153;SDS011;57519;51.494;-2.626;2022-09-14T11:27:44;16.77;;;8.00;;
70153;SDS011;57519;51.494;-2.626;2022-09-14T11:35:18;12.43;;;7.45;;
70153;SDS011;57519;51.494;-2.626;2022-09-14T11:37:49;16.77;;;8.23;;
70153;SDS011;57519;51.494;-2.626;2022-09-14T11:40:46;15.68;;;7.07;;
70153;SDS011;57519;51.494;-2.626;2022-09-14T11:43:22;17.52;;;7.35;;
70153;SDS011;57519;51.494;-2.626;2022-09-14T11:45:54;17.53;;;7.47;;
70153;SDS011;57519;51.494;-2.626;2022-09-14T11:50:56;15.93;;;7.82;;
70153;SDS011;57519;51.494;-2.626;2022-09-14T11:53:30;17.00;;;7.07;;
70153;SDS011;57519;51.494;-2.626;2022-09-14T11:55:56;18.70;;;7.22;;
70153;SDS011;57519;51.494;-2.626;2022-09-14T11:58:23;12.80;;;6.27;;
70153;SDS011;57519;51.494;-2.626;2022-09-14T12:03:19;18.90;;;8.60;;
70153;SDS011;57519;51.494;-2.626;2022-09-14T12:05:47;13.60;;;8.25;;
70153;SDS011;57519;51.494;-2.626;2022-09-14T12:13:29;19.53;;;8.30;;
70153;SDS011;57519;51.494;-2.626;2022-09-14T12:16:02;14.05;;;7.05;;
70153;SDS011;57519;51.494;-2.626;2022-09-14T12:18:34;15.45;;;8.23;;
70153;SDS011;57519;51.494;-2.626;2022-09-14T12:23:51;14.15;;;6.93;;
70153;SDS011;57519;51.494;-2.626;2022-09-14T12:26:31;12.02;;;6.45;;
70153;SDS011;57519;51.494;-2.626;2022-09-14T12:29:03;10.80;;;6.15;;
70153;SDS011;57519;51.494;-2.626;2022-09-14T12:31:33;16.52;;;7.45;;
70153;SDS011;57519;51.494;-2.626;2022-09-14T12:34:16;17.93;;;6.73;;
70153;SDS011;57519;51.494;-2.626;2022-09-14T12:39:24;12.17;;;7.27;;
70153;SDS011;57519;51.494;-2.626;2022-09-14T12:46:56;10.25;;;5.80;;
70153;SDS011;57519;51.494;-2.626;2022-09-14T12:49:31;17.77;;;7.47;;
70153;SDS011;57519;51.494;-2.626;2022-09-14T12:52:11;13.87;;;6.97;;
70153;SDS011;57519;51.494;-2.626;2022-09-14T12:55:10;12.23;;;6.65;;
70153;SDS011;57519;51.494;-2.626;2022-09-14T12:58:01;12.40;;;6.47;;
70153;SDS011;57519;51.494;-2.626;2022-09-14T13:00:55;11.18;;;5.72;;
70153;SDS011;57519;51.494;-2.626;2022-09-14T13:03:36;15.07;;;7.00;;
70153;SDS011;57519;51.494;-2.626;2022-09-14T13:06:10;16.53;;;7.23;;
70153;SDS011;57519;51.494;-2.626;2022-09-14T13:08:37;15.70;;;7.38;;
70153;SDS011;57519;51.494;-2.626;2022-09-14T13:11:03;17.77;;;6.68;;
70153;SDS011;57519;51.494;-2.626;2022-09-14T13:16:48;14.73;;;5.97;;
70153;SDS011;57519;51.494;-2.626;2022-09-14T13:33:15;20.17;;;7.43;;
70153;SDS011;57519;51.494;-2.626;2022-09-14T13:35:46;14.93;;;6.43;;
70153;SDS011;57519;51.494;-2.626;2022-09-14T13:38:21;11.13;;;5.68;;
70153;SDS011;57519;51.494;-2.626;2022-09-14T13:40:48;12.20;;;5.60;;
70153;SDS011;57519;51.494;-2.626;2022-09-14T13:43:16;12.65;;;5.68;;
70153;SDS011;57519;51.494;-2.626;2022-09-14T13:45:43;13.98;;;6.00;;
70153;SDS011;57519;51.494;-2.626;2022-09-14T13:48:09;12.40;;;5.53;;
70153;SDS011;57519;51.494;-2.626;2022-09-14T13:50:38;14.48;;;6.30;;
70153;SDS011;57519;51.494;-2.626;2022-09-14T13:53:22;11.65;;;6.13;;
70153;SDS011;57519;51.494;-2.626;2022-09-14T13:56:20;9.60;;;5.03;;
70153;SDS011;57519;51.494;-2.626;2022-09-14T14:01:34;14.00;;;6.10;;
70153;SDS011;57519;51.494;-2.626;2022-09-14T14:04:02;15.02;;;6.40;;
70153;SDS011;57519;51.494;-2.626;2022-09-14T14:06:31;12.90;;;5.72;;
70153;SDS011;57519;51.494;-2.626;2022-09-14T14:11:33;18.50;;;6.97;;
70153;SDS011;57519;51.494;-2.626;2022-09-14T14:16:39;12.88;;;5.35;;
70153;SDS011;57519;51.494;-2.626;2022-09-14T14:19:23;14.03;;;5.67;;
70153;SDS011;57519;51.494;-2.626;2022-09-14T14:21:53;9.15;;;5.15;;
70153;SDS011;57519;51.494;-2.626;2022-09-14T14:24:38;17.98;;;6.47;;
70153;SDS011;57519;51.494;-2.626;2022-09-14T14:27:04;12.38;;;5.55;;
70153;SDS011;57519;51.494;-2.626;2022-09-14T14:29:30;16.85;;;6.45;;
70153;SDS011;57519;51.494;-2.626;2022-09-14T14:31:56;12.27;;;4.87;;
70153;SDS011;57519;51.494;-2.626;2022-09-14T14:34:23;12.27;;;5.95;;
70153;SDS011;57519;51.494;-2.626;2022-09-14T14:36:51;11.55;;;5.45;;
70153;SDS011;57519;51.494;-2.626;2022-09-14T14:39:18;14.90;;;5.15;;
70153;SDS011;57519;51.494;-2.626;2022-09-14T14:41:45;11.30;;;5.40;;
70153;SDS011;57519;51.494;-2.626;2022-09-14T14:44:29;10.20;;;5.10;;
70153;SDS011;57519;51.494;-2.626;2022-09-14T14:46:55;10.85;;;5.43;;
70153;SDS011;57519;51.494;-2.626;2022-09-14T14:49:21;9.00;;;4.43;;
70153;SDS011;57519;51.494;-2.626;2022-09-14T14:51:47;11.83;;;5.37;;
70153;SDS011;57519;51.494;-2.626;2022-09-14T14:54:13;9.93;;;4.43;;
70153;SDS011;57519;51.494;-2.626;2022-09-14T14:56:42;13.02;;;5.15;;
70153;SDS011;57519;51.494;-2.626;2022-09-14T15:01:43;10.45;;;5.35;;
70153;SDS011;57519;51.494;-2.626;2022-09-14T15:04:11;13.07;;;5.73;;
70153;SDS011;57519;51.494;-2.626;2022-09-14T15:06:37;14.90;;;6.10;;
70153;SDS011;57519;51.494;-2.626;2022-09-14T15:09:05;11.90;;;5.00;;
70153;SDS011;57519;51.494;-2.626;2022-09-14T15:11:36;12.90;;;5.15;;
70153;SDS011;57519;51.494;-2.626;2022-09-14T15:14:02;14.50;;;5.55;;
70153;SDS011;57519;51.494;-2.626;2022-09-14T15:16:28;15.48;;;5.30;;
70153;SDS011;57519;51.494;-2.626;2022-09-14T15:18:54;10.93;;;5.33;;
70153;SDS011;57519;51.494;-2.626;2022-09-14T15:21:20;10.77;;;5.10;;
70153;SDS011;57519;51.494;-2.626;2022-09-14T15:23:47;10.77;;;5.03;;
70153;SDS011;57519;51.494;-2.626;2022-09-14T15:26:12;10.45;;;5.35;;
70153;SDS011;57519;51.494;-2.626;2022-09-14T15:28:38;12.43;;;5.00;;
70153;SDS011;57519;51.494;-2.626;2022-09-14T15:31:04;14.07;;;5.70;;
70153;SDS011;57519;51.494;-2.626;2022-09-14T15:33:30;10.23;;;5.40;;
70153;SDS011;57519;51.494;-2.626;2022-09-14T15:35:55;11.38;;;4.97;;
70153;SDS011;57519;51.494;-2.626;2022-09-14T15:38:21;10.13;;;5.03;;
70153;SDS011;57519;51.494;-2.626;2022-09-14T15:40:48;12.07;;;5.15;;
70153;SDS011;57519;51.494;-2.626;2022-09-14T15:43:14;16.00;;;6.03;;
70153;SDS011;57519;51.494;-2.626;2022-09-14T15:45:39;13.67;;;4.97;;
70153;SDS011;57519;51.494;-2.626;2022-09-14T15:48:08;14.65;;;4.60;;
70153;SDS011;57519;51.494;-2.626;2022-09-14T15:50:39;14.57;;;5.32;;
70153;SDS011;57519;51.494;-2.626;2022-09-14T15:53:06;8.80;;;5.17;;
70153;SDS011;57519;51.494;-2.626;2022-09-14T15:55:32;14.90;;;5.40;;
70153;SDS011;57519;51.494;-2.626;2022-09-14T15:58:00;16.93;;;5.40;;
70153;SDS011;57519;51.494;-2.626;2022-09-14T16:00:47;45.00;;;10.65;;
70153;SDS011;57519;51.494;-2.626;2022-09-14T16:03:57;21.90;;;6.53;;
70153;SDS011;57519;51.494;-2.626;2022-09-14T16:06:27;12.88;;;5.07;;
70153;SDS011;57519;51.494;-2.626;2022-09-14T16:11:59;10.68;;;5.13;;
70153;SDS011;57519;51.494;-2.626;2022-09-14T16:14:25;13.63;;;4.82;;
70153;SDS011;57519;51.494;-2.626;2022-09-14T16:20:12;15.80;;;4.95;;
70153;SDS011;57519;51.494;-2.626;2022-09-14T16:22:38;13.00;;;5.45;;
70153;SDS011;57519;51.494;-2.626;2022-09-14T16:25:04;16.10;;;5.40;;
70153;SDS011;57519;51.494;-2.626;2022-09-14T16:27:29;16.60;;;5.90;;
70153;SDS011;57519;51.494;-2.626;2022-09-14T16:29:55;16.17;;;6.00;;
70153;SDS011;57519;51.494;-2.626;2022-09-14T16:32:23;18.73;;;6.33;;
70153;SDS011;57519;51.494;-2.626;2022-09-14T16:34:49;17.58;;;6.35;;
70153;SDS011;57519;51.494;-2.626;2022-09-14T16:37:17;15.23;;;6.47;;
70153;SDS011;57519;51.494;-2.626;2022-09-14T16:40:01;16.58;;;6.00;;
70153;SDS011;57519;51.494;-2.626;2022-09-14T16:42:27;23.40;;;7.60;;
70153;SDS011;57519;51.494;-2.626;2022-09-14T16:44:53;17.77;;;6.40;;
70153;SDS011;57519;51.494;-2.626;2022-09-14T16:47:18;16.07;;;6.20;;
70153;SDS011;57519;51.494;-2.626;2022-09-14T16:49:43;28.03;;;7.97;;
70153;SDS011;57519;51.494;-2.626;2022-09-14T16:52:09;20.35;;;7.35;;
70153;SDS011;57519;51.494;-2.626;2022-09-14T16:54:34;30.73;;;8.97;;
70153;SDS011;57519;51.494;-2.626;2022-09-14T16:57:00;40.67;;;10.93;;
70153;SDS011;57519;51.494;-2.626;2022-09-14T16:59:26;17.92;;;7.07;;
70153;SDS011;57519;51.494;-2.626;2022-09-14T17:01:54;22.23;;;7.10;;
70153;SDS011;57519;51.494;-2.626;2022-09-14T17:04:19;30.20;;;9.57;;
70153;SDS011;57519;51.494;-2.626;2022-09-14T17:06:46;18.75;;;7.07;;
70153;SDS011;57519;51.494;-2.626;2022-09-14T17:09:18;17.63;;;6.60;;
70153;SDS011;57519;51.494;-2.626;2022-09-14T17:11:48;20.58;;;7.45;;
70153;SDS011;57519;51.494;-2.626;2022-09-14T17:14:15;21.90;;;7.10;;
70153;SDS011;57519;51.494;-2.626;2022-09-14T17:16:42;13.13;;;5.28;;
70153;SDS011;57519;51.494;-2.626;2022-09-14T17:19:10;14.25;;;6.05;;
70153;SDS011;57519;51.494;-2.626;2022-09-14T17:21:36;16.10;;;6.47;;